sensor_id;sensor_type;location;lat;lon;timestamp;P1;durP1;ratioP1;P2;durP2;ratioP2
47866;SDS011;33628;50.806;11.586;2022-11-20T00:02:10;44.63;;;18.95;;
47866;SDS011;33628;50.806;11.586;2022-11-20T00:04:37;39.60;;;18.67;;
47866;SDS011;33628;50.806;11.586;2022-11-20T00:07:03;39.38;;;18.85;;
47866;SDS011;33628;50.806;11.586;2022-11-20T00:09:30;45.80;;;18.55;;
47866;SDS011;33628;50.806;11.586;2022-11-20T00:11:57;43.20;;;19.88;;
47866;SDS011;33628;50.806;11.586;2022-11-20T00:14:25;43.67;;;19.25;;
47866;SDS011;33628;50.806;11.586;2022-11-20T00:16:51;46.97;;;19.60;;
47866;SDS011;33628;50.806;11.586;2022-11-20T00:19:18;46.33;;;19.70;;
47866;SDS011;33628;50.806;11.586;2022-11-20T00:21:44;46.10;;;18.77;;
47866;SDS011;33628;50.806;11.586;2022-11-20T00:24:11;39.50;;;17.63;;
47866;SDS011;33628;50.806;11.586;2022-11-20T00:26:38;40.75;;;17.25;;
47866;SDS011;33628;50.806;11.586;2022-11-20T00:29:04;41.67;;;18.38;;
47866;SDS011;33628;50.806;11.586;2022-11-20T00:31:32;39.30;;;17.83;;
47866;SDS011;33628;50.806;11.586;2022-11-20T00:34:00;42.85;;;18.13;;
47866;SDS011;33628;50.806;11.586;2022-11-20T00:36:27;38.30;;;17.83;;
47866;SDS011;33628;50.806;11.586;2022-11-20T00:38:57;38.22;;;18.00;;
47866;SDS011;33628;50.806;11.586;2022-11-20T00:41:25;33.20;;;16.55;;
47866;SDS011;33628;50.806;11.586;2022-11-20T00:43:53;35.10;;;16.35;;
47866;SDS011;33628;50.806;11.586;2022-11-20T00:46:22;37.05;;;17.05;;
47866;SDS011;33628;50.806;11.586;2022-11-20T00:48:51;37.92;;;18.13;;
47866;SDS011;33628;50.806;11.586;2022-11-20T00:51:18;35.00;;;15.55;;
47866;SDS011;33628;50.806;11.586;2022-11-20T00:53:46;35.28;;;16.42;;
47866;SDS011;33628;50.806;11.586;2022-11-20T00:56:13;37.17;;;16.73;;
47866;SDS011;33628;50.806;11.586;2022-11-20T00:58:41;38.63;;;17.38;;
47866;SDS011;33628;50.806;11.586;2022-11-20T01:01:09;38.58;;;16.63;;
47866;SDS011;33628;50.806;11.586;2022-11-20T01:03:38;38.55;;;16.92;;
47866;SDS011;33628;50.806;11.586;2022-11-20T01:06:09;40.47;;;17.33;;
47866;SDS011;33628;50.806;11.586;2022-11-20T01:08:37;37.70;;;17.58;;
47866;SDS011;33628;50.806;11.586;2022-11-20T01:11:05;39.85;;;17.38;;
47866;SDS011;33628;50.806;11.586;2022-11-20T01:13:32;35.88;;;16.83;;
47866;SDS011;33628;50.806;11.586;2022-11-20T01:16:03;38.92;;;16.70;;
47866;SDS011;33628;50.806;11.586;2022-11-20T01:18:30;35.28;;;16.55;;
47866;SDS011;33628;50.806;11.586;2022-11-20T01:20:59;35.28;;;17.00;;
47866;SDS011;33628;50.806;11.586;2022-11-20T01:23:31;36.20;;;16.23;;
47866;SDS011;33628;50.806;11.586;2022-11-20T01:25:59;38.10;;;17.13;;
47866;SDS011;33628;50.806;11.586;2022-11-20T01:28:27;32.53;;;16.08;;
47866;SDS011;33628;50.806;11.586;2022-11-20T01:30:54;34.30;;;15.85;;
47866;SDS011;33628;50.806;11.586;2022-11-20T01:33:21;45.17;;;17.52;;
47866;SDS011;33628;50.806;11.586;2022-11-20T01:35:48;37.35;;;16.83;;
47866;SDS011;33628;50.806;11.586;2022-11-20T01:38:14;37.30;;;16.60;;
47866;SDS011;33628;50.806;11.586;2022-11-20T01:40:42;32.17;;;16.17;;
47866;SDS011;33628;50.806;11.586;2022-11-20T01:43:12;36.90;;;16.23;;
47866;SDS011;33628;50.806;11.586;2022-11-20T01:48:31;35.30;;;16.52;;
47866;SDS011;33628;50.806;11.586;2022-11-20T01:51:01;38.10;;;17.23;;
47866;SDS011;33628;50.806;11.586;2022-11-20T01:53:30;38.72;;;16.30;;
47866;SDS011;33628;50.806;11.586;2022-11-20T01:56:00;40.45;;;17.20;;
47866;SDS011;33628;50.806;11.586;2022-11-20T01:58:28;37.38;;;16.65;;
47866;SDS011;33628;50.806;11.586;2022-11-20T02:00:58;35.08;;;15.38;;
47866;SDS011;33628;50.806;11.586;2022-11-20T02:03:25;44.90;;;17.05;;
47866;SDS011;33628;50.806;11.586;2022-11-20T02:05:53;38.10;;;16.33;;
47866;SDS011;33628;50.806;11.586;2022-11-20T02:08:23;32.88;;;14.90;;
47866;SDS011;33628;50.806;11.586;2022-11-20T02:10:50;36.67;;;17.17;;
47866;SDS011;33628;50.806;11.586;2022-11-20T02:13:18;40.78;;;17.13;;
47866;SDS011;33628;50.806;11.586;2022-11-20T02:16:03;36.90;;;16.33;;
47866;SDS011;33628;50.806;11.586;2022-11-20T02:18:31;38.17;;;16.88;;
47866;SDS011;33628;50.806;11.586;2022-11-20T02:20:58;35.28;;;16.77;;
47866;SDS011;33628;50.806;11.586;2022-11-20T02:23:30;35.50;;;16.27;;
47866;SDS011;33628;50.806;11.586;2022-11-20T02:26:01;33.72;;;16.75;;
47866;SDS011;33628;50.806;11.586;2022-11-20T02:28:28;39.35;;;16.70;;
47866;SDS011;33628;50.806;11.586;2022-11-20T02:30:55;39.80;;;16.85;;
47866;SDS011;33628;50.806;11.586;2022-11-20T02:33:21;36.50;;;16.05;;
47866;SDS011;33628;50.806;11.586;2022-11-20T02:35:48;38.28;;;17.23;;
47866;SDS011;33628;50.806;11.586;2022-11-20T02:38:18;43.55;;;17.83;;
47866;SDS011;33628;50.806;11.586;2022-11-20T02:40:48;46.05;;;17.48;;
47866;SDS011;33628;50.806;11.586;2022-11-20T02:43:16;37.50;;;16.00;;
47866;SDS011;33628;50.806;11.586;2022-11-20T02:45:43;39.47;;;16.65;;
47866;SDS011;33628;50.806;11.586;2022-11-20T02:48:09;43.75;;;16.63;;
47866;SDS011;33628;50.806;11.586;2022-11-20T02:50:37;42.03;;;17.58;;
47866;SDS011;33628;50.806;11.586;2022-11-20T02:53:04;40.90;;;17.75;;
47866;SDS011;33628;50.806;11.586;2022-11-20T02:55:31;37.88;;;15.68;;
47866;SDS011;33628;50.806;11.586;2022-11-20T02:57:58;38.78;;;16.60;;
47866;SDS011;33628;50.806;11.586;2022-11-20T03:00:26;40.78;;;17.02;;
47866;SDS011;33628;50.806;11.586;2022-11-20T03:02:52;40.45;;;17.63;;
47866;SDS011;33628;50.806;11.586;2022-11-20T03:05:19;40.97;;;16.80;;
47866;SDS011;33628;50.806;11.586;2022-11-20T03:07:45;44.20;;;17.30;;
47866;SDS011;33628;50.806;11.586;2022-11-20T03:10:12;38.13;;;18.05;;
47866;SDS011;33628;50.806;11.586;2022-11-20T03:12:39;37.85;;;16.58;;
47866;SDS011;33628;50.806;11.586;2022-11-20T03:15:06;38.92;;;17.65;;
47866;SDS011;33628;50.806;11.586;2022-11-20T03:17:34;46.67;;;18.20;;
47866;SDS011;33628;50.806;11.586;2022-11-20T03:20:01;37.08;;;14.88;;
47866;SDS011;33628;50.806;11.586;2022-11-20T03:22:28;33.63;;;16.23;;
47866;SDS011;33628;50.806;11.586;2022-11-20T03:24:55;32.80;;;14.63;;
47866;SDS011;33628;50.806;11.586;2022-11-20T03:27:21;36.63;;;15.75;;
47866;SDS011;33628;50.806;11.586;2022-11-20T03:29:48;36.95;;;16.17;;
47866;SDS011;33628;50.806;11.586;2022-11-20T03:32:15;35.30;;;15.95;;
47866;SDS011;33628;50.806;11.586;2022-11-20T03:34:43;37.60;;;16.15;;
47866;SDS011;33628;50.806;11.586;2022-11-20T03:37:09;40.90;;;15.75;;
47866;SDS011;33628;50.806;11.586;2022-11-20T03:39:36;35.72;;;15.55;;
47866;SDS011;33628;50.806;11.586;2022-11-20T03:42:02;33.85;;;16.35;;
47866;SDS011;33628;50.806;11.586;2022-11-20T03:44:49;40.38;;;16.42;;
47866;SDS011;33628;50.806;11.586;2022-11-20T03:47:15;38.25;;;16.60;;
47866;SDS011;33628;50.806;11.586;2022-11-20T03:49:43;37.60;;;16.38;;
47866;SDS011;33628;50.806;11.586;2022-11-20T03:52:10;37.58;;;17.92;;
47866;SDS011;33628;50.806;11.586;2022-11-20T03:54:36;43.25;;;18.92;;
47866;SDS011;33628;50.806;11.586;2022-11-20T03:57:03;40.17;;;18.35;;
47866;SDS011;33628;50.806;11.586;2022-11-20T03:59:29;43.00;;;17.88;;
47866;SDS011;33628;50.806;11.586;2022-11-20T04:01:56;47.00;;;18.13;;
47866;SDS011;33628;50.806;11.586;2022-11-20T04:04:23;44.67;;;17.95;;
47866;SDS011;33628;50.806;11.586;2022-11-20T04:06:54;36.95;;;16.55;;
47866;SDS011;33628;50.806;11.586;2022-11-20T04:09:20;35.28;;;15.25;;
47866;SDS011;33628;50.806;11.586;2022-11-20T04:11:47;41.72;;;17.02;;
47866;SDS011;33628;50.806;11.586;2022-11-20T04:14:14;42.97;;;16.65;;
47866;SDS011;33628;50.806;11.586;2022-11-20T04:16:41;32.70;;;15.25;;
47866;SDS011;33628;50.806;11.586;2022-11-20T04:19:09;33.58;;;16.13;;
47866;SDS011;33628;50.806;11.586;2022-11-20T04:21:37;37.03;;;16.13;;
47866;SDS011;33628;50.806;11.586;2022-11-20T04:24:05;36.85;;;16.42;;
47866;SDS011;33628;50.806;11.586;2022-11-20T04:26:33;39.17;;;17.33;;
47866;SDS011;33628;50.806;11.586;2022-11-20T04:29:00;39.22;;;15.95;;
47866;SDS011;33628;50.806;11.586;2022-11-20T04:31:29;33.90;;;15.23;;
47866;SDS011;33628;50.806;11.586;2022-11-20T04:33:58;35.65;;;16.52;;
47866;SDS011;33628;50.806;11.586;2022-11-20T04:36:26;42.13;;;17.23;;
47866;SDS011;33628;50.806;11.586;2022-11-20T04:38:54;42.80;;;17.67;;
47866;SDS011;33628;50.806;11.586;2022-11-20T04:41:23;40.13;;;16.27;;
47866;SDS011;33628;50.806;11.586;2022-11-20T04:43:51;39.13;;;16.90;;
47866;SDS011;33628;50.806;11.586;2022-11-20T04:46:20;35.80;;;16.30;;
47866;SDS011;33628;50.806;11.586;2022-11-20T04:48:46;40.22;;;17.50;;
47866;SDS011;33628;50.806;11.586;2022-11-20T04:51:13;37.88;;;16.35;;
47866;SDS011;33628;50.806;11.586;2022-11-20T04:53:40;35.78;;;15.93;;
47866;SDS011;33628;50.806;11.586;2022-11-20T04:56:07;41.25;;;18.13;;
47866;SDS011;33628;50.806;11.586;2022-11-20T04:58:36;37.35;;;16.33;;
47866;SDS011;33628;50.806;11.586;2022-11-20T05:01:03;39.20;;;16.45;;
47866;SDS011;33628;50.806;11.586;2022-11-20T05:03:31;35.50;;;15.25;;
47866;SDS011;33628;50.806;11.586;2022-11-20T05:05:59;34.80;;;14.60;;
47866;SDS011;33628;50.806;11.586;2022-11-20T05:08:26;40.05;;;17.08;;
47866;SDS011;33628;50.806;11.586;2022-11-20T05:10:53;37.60;;;14.93;;
47866;SDS011;33628;50.806;11.586;2022-11-20T05:13:20;37.03;;;16.33;;
47866;SDS011;33628;50.806;11.586;2022-11-20T05:15:48;37.70;;;15.82;;
47866;SDS011;33628;50.806;11.586;2022-11-20T05:18:14;32.33;;;16.02;;
47866;SDS011;33628;50.806;11.586;2022-11-20T05:20:41;41.13;;;17.30;;
47866;SDS011;33628;50.806;11.586;2022-11-20T05:23:08;35.10;;;16.17;;
47866;SDS011;33628;50.806;11.586;2022-11-20T05:25:35;34.67;;;15.32;;
47866;SDS011;33628;50.806;11.586;2022-11-20T05:28:02;35.05;;;15.55;;
47866;SDS011;33628;50.806;11.586;2022-11-20T05:30:29;35.13;;;16.20;;
47866;SDS011;33628;50.806;11.586;2022-11-20T05:32:57;35.53;;;16.30;;
47866;SDS011;33628;50.806;11.586;2022-11-20T05:35:23;31.63;;;15.82;;
47866;SDS011;33628;50.806;11.586;2022-11-20T05:37:50;31.17;;;15.98;;
47866;SDS011;33628;50.806;11.586;2022-11-20T05:40:17;36.90;;;16.70;;
47866;SDS011;33628;50.806;11.586;2022-11-20T05:42:43;33.10;;;16.48;;
47866;SDS011;33628;50.806;11.586;2022-11-20T05:45:10;38.63;;;16.60;;
47866;SDS011;33628;50.806;11.586;2022-11-20T05:47:36;35.10;;;15.38;;
47866;SDS011;33628;50.806;11.586;2022-11-20T05:50:05;35.53;;;16.65;;
47866;SDS011;33628;50.806;11.586;2022-11-20T05:52:32;38.88;;;16.75;;
47866;SDS011;33628;50.806;11.586;2022-11-20T05:54:58;40.95;;;17.45;;
47866;SDS011;33628;50.806;11.586;2022-11-20T05:57:25;37.63;;;17.23;;
47866;SDS011;33628;50.806;11.586;2022-11-20T05:59:52;35.55;;;16.10;;
47866;SDS011;33628;50.806;11.586;2022-11-20T06:02:18;38.28;;;15.77;;
47866;SDS011;33628;50.806;11.586;2022-11-20T06:04:45;41.03;;;17.70;;
47866;SDS011;33628;50.806;11.586;2022-11-20T06:07:13;36.13;;;15.82;;
47866;SDS011;33628;50.806;11.586;2022-11-20T06:09:39;39.13;;;15.18;;
47866;SDS011;33628;50.806;11.586;2022-11-20T06:12:06;33.55;;;15.93;;
47866;SDS011;33628;50.806;11.586;2022-11-20T06:14:33;35.65;;;15.43;;
47866;SDS011;33628;50.806;11.586;2022-11-20T06:17:00;32.63;;;14.55;;
47866;SDS011;33628;50.806;11.586;2022-11-20T06:19:26;38.13;;;16.45;;
47866;SDS011;33628;50.806;11.586;2022-11-20T06:21:53;39.45;;;16.58;;
47866;SDS011;33628;50.806;11.586;2022-11-20T06:24:21;38.58;;;16.70;;
47866;SDS011;33628;50.806;11.586;2022-11-20T06:26:48;35.25;;;16.48;;
47866;SDS011;33628;50.806;11.586;2022-11-20T06:29:15;36.53;;;15.68;;
47866;SDS011;33628;50.806;11.586;2022-11-20T06:31:41;37.38;;;16.10;;
47866;SDS011;33628;50.806;11.586;2022-11-20T06:34:08;37.40;;;15.85;;
47866;SDS011;33628;50.806;11.586;2022-11-20T06:36:35;32.80;;;15.40;;
47866;SDS011;33628;50.806;11.586;2022-11-20T06:39:01;37.20;;;17.05;;
47866;SDS011;33628;50.806;11.586;2022-11-20T06:41:29;52.05;;;19.85;;
47866;SDS011;33628;50.806;11.586;2022-11-20T06:43:56;41.03;;;19.15;;
47866;SDS011;33628;50.806;11.586;2022-11-20T06:46:23;31.95;;;15.32;;
47866;SDS011;33628;50.806;11.586;2022-11-20T06:48:50;37.15;;;15.63;;
47866;SDS011;33628;50.806;11.586;2022-11-20T06:51:17;42.05;;;16.58;;
47866;SDS011;33628;50.806;11.586;2022-11-20T06:53:43;38.83;;;15.75;;
47866;SDS011;33628;50.806;11.586;2022-11-20T06:56:10;40.47;;;17.00;;
47866;SDS011;33628;50.806;11.586;2022-11-20T06:58:38;41.33;;;16.90;;
47866;SDS011;33628;50.806;11.586;2022-11-20T07:01:05;40.30;;;19.08;;
47866;SDS011;33628;50.806;11.586;2022-11-20T07:03:34;44.60;;;20.85;;
47866;SDS011;33628;50.806;11.586;2022-11-20T07:06:02;39.85;;;19.45;;
47866;SDS011;33628;50.806;11.586;2022-11-20T07:08:29;39.67;;;18.35;;
47866;SDS011;33628;50.806;11.586;2022-11-20T07:10:56;43.90;;;20.25;;
47866;SDS011;33628;50.806;11.586;2022-11-20T07:13:24;36.17;;;17.60;;
47866;SDS011;33628;50.806;11.586;2022-11-20T07:15:52;46.78;;;21.08;;
47866;SDS011;33628;50.806;11.586;2022-11-20T07:18:19;45.17;;;17.30;;
47866;SDS011;33628;50.806;11.586;2022-11-20T07:20:45;40.00;;;16.55;;
47866;SDS011;33628;50.806;11.586;2022-11-20T07:23:12;41.28;;;16.80;;
47866;SDS011;33628;50.806;11.586;2022-11-20T07:25:39;43.40;;;16.67;;
47866;SDS011;33628;50.806;11.586;2022-11-20T07:28:05;42.53;;;18.30;;
47866;SDS011;33628;50.806;11.586;2022-11-20T07:30:32;45.15;;;19.83;;
47866;SDS011;33628;50.806;11.586;2022-11-20T07:33:00;49.70;;;19.58;;
47866;SDS011;33628;50.806;11.586;2022-11-20T07:35:33;45.42;;;20.10;;
47866;SDS011;33628;50.806;11.586;2022-11-20T07:38:00;49.13;;;19.95;;
47866;SDS011;33628;50.806;11.586;2022-11-20T07:40:27;46.13;;;19.30;;
47866;SDS011;33628;50.806;11.586;2022-11-20T07:42:54;42.53;;;19.25;;
47866;SDS011;33628;50.806;11.586;2022-11-20T07:45:22;40.15;;;17.35;;
47866;SDS011;33628;50.806;11.586;2022-11-20T07:47:50;38.20;;;18.17;;
47866;SDS011;33628;50.806;11.586;2022-11-20T07:50:18;63.90;;;27.10;;
47866;SDS011;33628;50.806;11.586;2022-11-20T07:52:45;57.55;;;24.15;;
47866;SDS011;33628;50.806;11.586;2022-11-20T07:55:12;42.78;;;21.13;;
47866;SDS011;33628;50.806;11.586;2022-11-20T07:57:39;47.33;;;19.13;;
47866;SDS011;33628;50.806;11.586;2022-11-20T08:00:06;37.78;;;18.50;;
47866;SDS011;33628;50.806;11.586;2022-11-20T08:02:40;31.02;;;13.50;;
47866;SDS011;33628;50.806;11.586;2022-11-20T08:05:08;36.10;;;16.67;;
47866;SDS011;33628;50.806;11.586;2022-11-20T08:07:39;43.65;;;18.25;;
47866;SDS011;33628;50.806;11.586;2022-11-20T08:10:08;42.95;;;17.50;;
47866;SDS011;33628;50.806;11.586;2022-11-20T08:12:35;37.50;;;19.05;;
47866;SDS011;33628;50.806;11.586;2022-11-20T08:15:27;40.20;;;18.02;;
47866;SDS011;33628;50.806;11.586;2022-11-20T08:17:58;38.90;;;19.52;;
47866;SDS011;33628;50.806;11.586;2022-11-20T08:20:26;36.33;;;16.70;;
47866;SDS011;33628;50.806;11.586;2022-11-20T08:22:58;37.55;;;18.15;;
47866;SDS011;33628;50.806;11.586;2022-11-20T08:25:25;37.45;;;18.42;;
47866;SDS011;33628;50.806;11.586;2022-11-20T08:27:52;36.78;;;17.65;;
47866;SDS011;33628;50.806;11.586;2022-11-20T08:30:19;43.97;;;19.83;;
47866;SDS011;33628;50.806;11.586;2022-11-20T08:32:46;41.05;;;19.67;;
47866;SDS011;33628;50.806;11.586;2022-11-20T08:35:12;42.88;;;21.05;;
47866;SDS011;33628;50.806;11.586;2022-11-20T08:37:39;40.90;;;20.08;;
47866;SDS011;33628;50.806;11.586;2022-11-20T08:40:10;40.60;;;18.92;;
47866;SDS011;33628;50.806;11.586;2022-11-20T08:42:45;42.50;;;18.52;;
47866;SDS011;33628;50.806;11.586;2022-11-20T08:45:12;50.33;;;23.13;;
47866;SDS011;33628;50.806;11.586;2022-11-20T08:47:39;59.08;;;23.10;;
47866;SDS011;33628;50.806;11.586;2022-11-20T08:50:06;46.55;;;22.05;;
47866;SDS011;33628;50.806;11.586;2022-11-20T08:52:33;42.97;;;20.05;;
47866;SDS011;33628;50.806;11.586;2022-11-20T08:55:00;50.35;;;20.77;;
47866;SDS011;33628;50.806;11.586;2022-11-20T08:57:28;45.00;;;20.52;;
47866;SDS011;33628;50.806;11.586;2022-11-20T08:59:57;46.22;;;19.38;;
47866;SDS011;33628;50.806;11.586;2022-11-20T09:02:24;51.63;;;21.15;;
47866;SDS011;33628;50.806;11.586;2022-11-20T09:04:51;40.78;;;18.15;;
47866;SDS011;33628;50.806;11.586;2022-11-20T09:07:19;38.60;;;19.33;;
47866;SDS011;33628;50.806;11.586;2022-11-20T09:09:46;38.42;;;16.77;;
47866;SDS011;33628;50.806;11.586;2022-11-20T09:12:13;39.75;;;18.02;;
47866;SDS011;33628;50.806;11.586;2022-11-20T09:14:41;31.00;;;14.43;;
47866;SDS011;33628;50.806;11.586;2022-11-20T09:17:09;37.85;;;16.20;;
47866;SDS011;33628;50.806;11.586;2022-11-20T09:19:36;34.80;;;16.40;;
47866;SDS011;33628;50.806;11.586;2022-11-20T09:22:02;33.20;;;15.65;;
47866;SDS011;33628;50.806;11.586;2022-11-20T09:24:29;35.10;;;17.15;;
47866;SDS011;33628;50.806;11.586;2022-11-20T09:26:56;38.90;;;17.20;;
47866;SDS011;33628;50.806;11.586;2022-11-20T09:29:23;38.15;;;16.85;;
47866;SDS011;33628;50.806;11.586;2022-11-20T09:31:51;38.45;;;17.88;;
47866;SDS011;33628;50.806;11.586;2022-11-20T09:34:17;36.38;;;16.63;;
47866;SDS011;33628;50.806;11.586;2022-11-20T09:36:46;39.10;;;18.23;;
47866;SDS011;33628;50.806;11.586;2022-11-20T09:39:16;43.35;;;20.75;;
47866;SDS011;33628;50.806;11.586;2022-11-20T09:41:49;33.47;;;17.85;;
47866;SDS011;33628;50.806;11.586;2022-11-20T09:44:26;38.42;;;18.05;;
47866;SDS011;33628;50.806;11.586;2022-11-20T09:47:02;34.50;;;16.77;;
47866;SDS011;33628;50.806;11.586;2022-11-20T09:49:36;34.95;;;17.20;;
47866;SDS011;33628;50.806;11.586;2022-11-20T09:52:15;35.25;;;16.17;;
47866;SDS011;33628;50.806;11.586;2022-11-20T09:54:55;33.95;;;16.60;;
47866;SDS011;33628;50.806;11.586;2022-11-20T09:57:23;34.97;;;17.05;;
47866;SDS011;33628;50.806;11.586;2022-11-20T09:59:53;28.98;;;15.57;;
47866;SDS011;33628;50.806;11.586;2022-11-20T10:02:27;29.42;;;14.63;;
47866;SDS011;33628;50.806;11.586;2022-11-20T10:04:56;30.70;;;15.10;;
47866;SDS011;33628;50.806;11.586;2022-11-20T10:07:28;29.38;;;14.25;;
47866;SDS011;33628;50.806;11.586;2022-11-20T10:09:58;29.35;;;15.07;;
47866;SDS011;33628;50.806;11.586;2022-11-20T10:12:27;32.75;;;14.32;;
47866;SDS011;33628;50.806;11.586;2022-11-20T10:15:03;27.88;;;13.98;;
47866;SDS011;33628;50.806;11.586;2022-11-20T10:17:46;27.38;;;14.30;;
47866;SDS011;33628;50.806;11.586;2022-11-20T10:20:23;32.17;;;15.38;;
47866;SDS011;33628;50.806;11.586;2022-11-20T10:22:59;32.88;;;15.20;;
47866;SDS011;33628;50.806;11.586;2022-11-20T10:25:37;35.13;;;17.35;;
47866;SDS011;33628;50.806;11.586;2022-11-20T10:28:17;35.88;;;18.00;;
47866;SDS011;33628;50.806;11.586;2022-11-20T10:30:51;35.00;;;15.48;;
47866;SDS011;33628;50.806;11.586;2022-11-20T10:33:23;32.97;;;16.60;;
47866;SDS011;33628;50.806;11.586;2022-11-20T10:35:52;34.97;;;17.30;;
47866;SDS011;33628;50.806;11.586;2022-11-20T10:38:23;34.75;;;16.02;;
47866;SDS011;33628;50.806;11.586;2022-11-20T10:40:52;34.17;;;15.85;;
47866;SDS011;33628;50.806;11.586;2022-11-20T10:43:41;30.17;;;14.98;;
47866;SDS011;33628;50.806;11.586;2022-11-20T10:46:08;34.38;;;16.48;;
47866;SDS011;33628;50.806;11.586;2022-11-20T10:48:39;34.60;;;16.33;;
47866;SDS011;33628;50.806;11.586;2022-11-20T10:51:11;34.15;;;15.55;;
47866;SDS011;33628;50.806;11.586;2022-11-20T10:53:47;33.70;;;16.10;;
47866;SDS011;33628;50.806;11.586;2022-11-20T10:56:23;33.95;;;16.60;;
47866;SDS011;33628;50.806;11.586;2022-11-20T10:59:02;30.67;;;14.52;;
47866;SDS011;33628;50.806;11.586;2022-11-20T11:01:59;32.95;;;16.80;;
47866;SDS011;33628;50.806;11.586;2022-11-20T11:04:45;29.10;;;14.20;;
47866;SDS011;33628;50.806;11.586;2022-11-20T11:07:15;32.45;;;16.13;;
47866;SDS011;33628;50.806;11.586;2022-11-20T11:09:46;34.40;;;18.50;;
47866;SDS011;33628;50.806;11.586;2022-11-20T11:12:14;34.83;;;19.05;;
47866;SDS011;33628;50.806;11.586;2022-11-20T11:14:41;41.65;;;22.40;;
47866;SDS011;33628;50.806;11.586;2022-11-20T11:17:26;36.92;;;19.52;;
47866;SDS011;33628;50.806;11.586;2022-11-20T11:20:03;36.03;;;18.00;;
47866;SDS011;33628;50.806;11.586;2022-11-20T11:22:33;35.58;;;18.60;;
47866;SDS011;33628;50.806;11.586;2022-11-20T11:25:01;45.70;;;25.77;;
47866;SDS011;33628;50.806;11.586;2022-11-20T11:27:28;43.25;;;22.60;;
47866;SDS011;33628;50.806;11.586;2022-11-20T11:30:02;41.22;;;24.05;;
47866;SDS011;33628;50.806;11.586;2022-11-20T11:32:38;39.53;;;21.05;;
47866;SDS011;33628;50.806;11.586;2022-11-20T11:35:17;40.17;;;19.42;;
47866;SDS011;33628;50.806;11.586;2022-11-20T11:37:46;37.58;;;18.60;;
47866;SDS011;33628;50.806;11.586;2022-11-20T11:40:14;37.30;;;18.67;;
47866;SDS011;33628;50.806;11.586;2022-11-20T11:42:41;41.28;;;18.95;;
47866;SDS011;33628;50.806;11.586;2022-11-20T11:45:11;37.33;;;19.50;;
47866;SDS011;33628;50.806;11.586;2022-11-20T11:47:43;79.43;;;31.95;;
47866;SDS011;33628;50.806;11.586;2022-11-20T11:50:17;46.38;;;24.20;;
47866;SDS011;33628;50.806;11.586;2022-11-20T11:52:46;43.25;;;19.80;;
47866;SDS011;33628;50.806;11.586;2022-11-20T11:55:19;44.53;;;21.25;;
47866;SDS011;33628;50.806;11.586;2022-11-20T11:57:51;39.92;;;19.58;;
47866;SDS011;33628;50.806;11.586;2022-11-20T12:00:21;42.50;;;21.27;;
47866;SDS011;33628;50.806;11.586;2022-11-20T12:02:52;35.30;;;17.42;;
47866;SDS011;33628;50.806;11.586;2022-11-20T12:05:25;33.80;;;19.65;;
47866;SDS011;33628;50.806;11.586;2022-11-20T12:07:54;29.88;;;15.20;;
47866;SDS011;33628;50.806;11.586;2022-11-20T12:10:28;31.80;;;16.55;;
47866;SDS011;33628;50.806;11.586;2022-11-20T12:13:06;30.75;;;17.23;;
47866;SDS011;33628;50.806;11.586;2022-11-20T12:15:42;27.75;;;15.38;;
47866;SDS011;33628;50.806;11.586;2022-11-20T12:18:12;27.45;;;14.93;;
47866;SDS011;33628;50.806;11.586;2022-11-20T12:20:44;25.27;;;13.75;;
47866;SDS011;33628;50.806;11.586;2022-11-20T12:23:15;27.58;;;14.60;;
47866;SDS011;33628;50.806;11.586;2022-11-20T12:25:47;31.70;;;16.73;;
47866;SDS011;33628;50.806;11.586;2022-11-20T12:28:30;37.13;;;18.85;;
47866;SDS011;33628;50.806;11.586;2022-11-20T12:31:11;37.15;;;20.55;;
47866;SDS011;33628;50.806;11.586;2022-11-20T12:36:37;38.88;;;18.50;;
47866;SDS011;33628;50.806;11.586;2022-11-20T12:39:16;34.13;;;17.33;;
47866;SDS011;33628;50.806;11.586;2022-11-20T12:42:15;33.55;;;17.60;;
47866;SDS011;33628;50.806;11.586;2022-11-20T12:45:29;33.33;;;16.17;;
47866;SDS011;33628;50.806;11.586;2022-11-20T12:48:20;31.15;;;15.50;;
47866;SDS011;33628;50.806;11.586;2022-11-20T12:51:08;37.65;;;17.73;;
47866;SDS011;33628;50.806;11.586;2022-11-20T12:53:48;40.67;;;19.67;;
47866;SDS011;33628;50.806;11.586;2022-11-20T12:56:25;46.47;;;21.95;;
47866;SDS011;33628;50.806;11.586;2022-11-20T12:59:00;37.28;;;18.58;;
47866;SDS011;33628;50.806;11.586;2022-11-20T13:01:36;32.03;;;17.38;;
47866;SDS011;33628;50.806;11.586;2022-11-20T13:04:08;33.20;;;16.55;;
47866;SDS011;33628;50.806;11.586;2022-11-20T13:06:40;33.20;;;17.80;;
47866;SDS011;33628;50.806;11.586;2022-11-20T13:09:10;35.10;;;17.45;;
47866;SDS011;33628;50.806;11.586;2022-11-20T13:11:40;41.72;;;20.38;;
47866;SDS011;33628;50.806;11.586;2022-11-20T13:14:19;40.90;;;20.45;;
47866;SDS011;33628;50.806;11.586;2022-11-20T13:17:04;26.15;;;13.98;;
47866;SDS011;33628;50.806;11.586;2022-11-20T13:19:31;36.20;;;16.92;;
47866;SDS011;33628;50.806;11.586;2022-11-20T13:21:58;32.95;;;17.45;;
47866;SDS011;33628;50.806;11.586;2022-11-20T13:24:26;34.00;;;16.25;;
47866;SDS011;33628;50.806;11.586;2022-11-20T13:27:02;30.02;;;16.42;;
47866;SDS011;33628;50.806;11.586;2022-11-20T13:29:31;33.92;;;16.13;;
47866;SDS011;33628;50.806;11.586;2022-11-20T13:32:06;39.55;;;18.98;;
47866;SDS011;33628;50.806;11.586;2022-11-20T13:34:39;38.25;;;19.23;;
47866;SDS011;33628;50.806;11.586;2022-11-20T13:37:23;47.67;;;23.23;;
47866;SDS011;33628;50.806;11.586;2022-11-20T13:39:51;40.35;;;22.20;;
47866;SDS011;33628;50.806;11.586;2022-11-20T13:42:23;39.58;;;19.95;;
47866;SDS011;33628;50.806;11.586;2022-11-20T13:44:53;38.60;;;19.65;;
47866;SDS011;33628;50.806;11.586;2022-11-20T13:47:22;37.20;;;19.75;;
47866;SDS011;33628;50.806;11.586;2022-11-20T13:49:50;39.40;;;20.63;;
47866;SDS011;33628;50.806;11.586;2022-11-20T13:52:26;39.67;;;20.27;;
47866;SDS011;33628;50.806;11.586;2022-11-20T13:55:03;42.08;;;23.15;;
47866;SDS011;33628;50.806;11.586;2022-11-20T13:57:44;45.95;;;22.67;;
47866;SDS011;33628;50.806;11.586;2022-11-20T14:00:24;41.83;;;23.55;;
47866;SDS011;33628;50.806;11.586;2022-11-20T14:03:01;47.97;;;23.45;;
47866;SDS011;33628;50.806;11.586;2022-11-20T14:05:34;55.83;;;29.27;;
47866;SDS011;33628;50.806;11.586;2022-11-20T14:08:02;39.45;;;20.65;;
47866;SDS011;33628;50.806;11.586;2022-11-20T14:10:29;37.92;;;20.65;;
47866;SDS011;33628;50.806;11.586;2022-11-20T14:12:56;32.65;;;17.75;;
47866;SDS011;33628;50.806;11.586;2022-11-20T14:15:24;37.40;;;20.80;;
47866;SDS011;33628;50.806;11.586;2022-11-20T14:17:52;40.30;;;19.70;;
47866;SDS011;33628;50.806;11.586;2022-11-20T14:20:20;36.75;;;19.35;;
47866;SDS011;33628;50.806;11.586;2022-11-20T14:22:49;40.50;;;21.08;;
47866;SDS011;33628;50.806;11.586;2022-11-20T14:25:20;40.22;;;20.63;;
47866;SDS011;33628;50.806;11.586;2022-11-20T14:27:50;40.70;;;19.77;;
47866;SDS011;33628;50.806;11.586;2022-11-20T14:30:20;40.40;;;20.40;;